sensor_id;sensor_type;location;lat;lon;timestamp;pressure;altitude;pressure_sealevel;temperature;humidity
32933;BME280;19444;50.518;10.870;2023-05-23T00:01:05;96188.03;;;17.67;100.00
32933;BME280;19444;50.518;10.870;2023-05-23T00:04:03;96183.13;;;17.53;100.00
32933;BME280;19444;50.518;10.870;2023-05-23T00:07:00;96193.94;;;17.72;100.00
32933;BME280;19444;50.518;10.870;2023-05-23T00:09:57;96192.13;;;17.80;100.00
32933;BME280;19444;50.518;10.870;2023-05-23T00:12:54;96181.06;;;17.88;100.00
32933;BME280;19444;50.518;10.870;2023-05-23T00:15:53;96188.22;;;18.00;100.00
32933;BME280;19444;50.518;10.870;2023-05-23T00:18:50;96185.88;;;17.99;100.00
32933;BME280;19444;50.518;10.870;2023-05-23T00:21:47;96186.34;;;17.81;100.00
32933;BME280;19444;50.518;10.870;2023-05-23T00:24:44;96182.50;;;17.82;100.00
32933;BME280;19444;50.518;10.870;2023-05-23T00:27:41;96188.44;;;17.69;100.00
32933;BME280;19444;50.518;10.870;2023-05-23T00:30:38;96185.88;;;17.99;100.00
32933;BME280;19444;50.518;10.870;2023-05-23T00:33:35;96179.75;;;18.02;100.00
32933;BME280;19444;50.518;10.870;2023-05-23T00:36:32;96182.50;;;17.82;100.00
32933;BME280;19444;50.518;10.870;2023-05-23T00:39:33;96169.38;;;17.84;100.00
32933;BME280;19444;50.518;10.870;2023-05-23T00:42:30;96177.16;;;17.86;100.00
32933;BME280;19444;50.518;10.870;2023-05-23T00:45:28;96177.75;;;17.76;100.00
32933;BME280;19444;50.518;10.870;2023-05-23T00:48:25;96181.66;;;17.78;100.00
32933;BME280;19444;50.518;10.870;2023-05-23T00:51:23;96178.88;;;17.98;100.00
32933;BME280;19444;50.518;10.870;2023-05-23T00:54:25;96174.59;;;17.74;100.00
32933;BME280;19444;50.518;10.870;2023-05-23T00:57:24;96171.00;;;17.89;100.00
32933;BME280;19444;50.518;10.870;2023-05-23T01:00:22;96169.56;;;17.95;100.00
32933;BME280;19444;50.518;10.870;2023-05-23T01:03:20;96176.94;;;17.98;100.00
32933;BME280;19444;50.518;10.870;2023-05-23T01:06:19;96178.22;;;17.81;100.00
32933;BME280;19444;50.518;10.870;2023-05-23T01:09:16;96177.94;;;17.86;100.00
32933;BME280;19444;50.518;10.870;2023-05-23T01:15:57;96185.94;;;17.79;100.00
32933;BME280;19444;50.518;10.870;2023-05-23T01:22:32;96197.78;;;18.17;100.00
32933;BME280;19444;50.518;10.870;2023-05-23T01:28:45;96204.47;;;18.00;100.00
32933;BME280;19444;50.518;10.870;2023-05-23T01:32:10;96205.94;;;17.71;100.00
32933;BME280;19444;50.518;10.870;2023-05-23T01:35:09;96202.63;;;17.81;100.00
32933;BME280;19444;50.518;10.870;2023-05-23T01:38:06;96213.16;;;17.86;100.00
32933;BME280;19444;50.518;10.870;2023-05-23T01:41:03;96213.09;;;17.83;100.00
32933;BME280;19444;50.518;10.870;2023-05-23T01:44:00;96205.94;;;17.94;100.00
32933;BME280;19444;50.518;10.870;2023-05-23T01:46:57;96205.91;;;18.17;100.00
32933;BME280;19444;50.518;10.870;2023-05-23T01:49:54;96200.81;;;17.89;100.00
32933;BME280;19444;50.518;10.870;2023-05-23T01:52:53;96213.06;;;17.60;100.00
32933;BME280;19444;50.518;10.870;2023-05-23T01:55:51;96210.63;;;17.55;100.00
32933;BME280;19444;50.518;10.870;2023-05-23T01:58:48;96203.28;;;17.55;100.00
32933;BME280;19444;50.518;10.870;2023-05-23T02:01:45;96215.75;;;17.60;100.00
32933;BME280;19444;50.518;10.870;2023-05-23T02:04:42;96211.72;;;17.50;100.00
32933;BME280;19444;50.518;10.870;2023-05-23T02:07:39;96219.84;;;17.70;100.00
32933;BME280;19444;50.518;10.870;2023-05-23T02:10:36;96216.31;;;17.69;100.00
32933;BME280;19444;50.518;10.870;2023-05-23T02:13:33;96229.56;;;17.94;100.00
32933;BME280;19444;50.518;10.870;2023-05-23T02:16:30;96229.06;;;17.88;100.00
32933;BME280;19444;50.518;10.870;2023-05-23T02:19:29;96227.56;;;18.13;100.00
32933;BME280;19444;50.518;10.870;2023-05-23T02:22:26;96218.66;;;18.13;100.00
32933;BME280;19444;50.518;10.870;2023-05-23T02:25:22;96218.13;;;18.04;100.00
32933;BME280;19444;50.518;10.870;2023-05-23T02:28:19;96226.16;;;18.00;100.00
32933;BME280;19444;50.518;10.870;2023-05-23T02:31:16;96229.31;;;17.79;100.00
32933;BME280;19444;50.518;10.870;2023-05-23T02:34:13;96233.31;;;17.66;100.00
32933;BME280;19444;50.518;10.870;2023-05-23T02:37:10;96233.81;;;17.72;100.00
32933;BME280;19444;50.518;10.870;2023-05-23T02:40:07;96232.25;;;17.51;100.00
32933;BME280;19444;50.518;10.870;2023-05-23T02:43:04;96230.72;;;17.73;100.00
32933;BME280;19444;50.518;10.870;2023-05-23T02:46:01;96224.19;;;17.74;100.00
32933;BME280;19444;50.518;10.870;2023-05-23T02:48:58;96246.44;;;17.83;100.00
32933;BME280;19444;50.518;10.870;2023-05-23T02:51:55;96244.09;;;17.43;100.00
32933;BME280;19444;50.518;10.870;2023-05-23T02:54:52;96252.72;;;17.49;100.00
32933;BME280;19444;50.518;10.870;2023-05-23T02:57:49;96248.09;;;17.49;100.00
32933;BME280;19444;50.518;10.870;2023-05-23T03:00:46;96243.81;;;17.48;100.00
32933;BME280;19444;50.518;10.870;2023-05-23T03:03:43;96241.66;;;17.77;100.00
32933;BME280;19444;50.518;10.870;2023-05-23T03:06:40;96241.94;;;17.52;100.00
32933;BME280;19444;50.518;10.870;2023-05-23T03:09:40;96250.72;;;17.26;100.00
32933;BME280;19444;50.518;10.870;2023-05-23T03:12:37;96253.56;;;17.53;100.00
32933;BME280;19444;50.518;10.870;2023-05-23T03:15:34;96251.22;;;17.13;100.00
32933;BME280;19444;50.518;10.870;2023-05-23T03:18:31;96255.44;;;17.49;100.00
32933;BME280;19444;50.518;10.870;2023-05-23T03:21:28;96246.75;;;17.40;100.00
32933;BME280;19444;50.518;10.870;2023-05-23T03:24:25;96253.72;;;17.21;100.00
32933;BME280;19444;50.518;10.870;2023-05-23T03:27:22;96263.63;;;17.33;100.00
32933;BME280;19444;50.518;10.870;2023-05-23T03:30:19;96260.63;;;17.57;100.00
32933;BME280;19444;50.518;10.870;2023-05-23T03:33:16;96267.97;;;17.57;100.00
32933;BME280;19444;50.518;10.870;2023-05-23T03:36:13;96283.56;;;17.63;100.00
32933;BME280;19444;50.518;10.870;2023-05-23T03:39:10;96268.31;;;17.36;100.00
32933;BME280;19444;50.518;10.870;2023-05-23T03:42:08;96277.44;;;17.67;100.00
32933;BME280;19444;50.518;10.870;2023-05-23T03:45:05;96265.91;;;17.70;100.00
32933;BME280;19444;50.518;10.870;2023-05-23T03:48:02;96269.81;;;17.53;100.00
32933;BME280;19444;50.518;10.870;2023-05-23T03:50:59;96277.00;;;17.06;100.00
32933;BME280;19444;50.518;10.870;2023-05-23T03:53:56;96276.75;;;17.31;100.00
32933;BME280;19444;50.518;10.870;2023-05-23T03:56:54;96275.59;;;17.51;100.00
32933;BME280;19444;50.518;10.870;2023-05-23T03:59:51;96276.53;;;17.78;100.00
32933;BME280;19444;50.518;10.870;2023-05-23T04:02:48;96275.97;;;17.50;100.00
32933;BME280;19444;50.518;10.870;2023-05-23T04:05:48;96280.75;;;17.76;100.00
32933;BME280;19444;50.518;10.870;2023-05-23T04:08:45;96281.88;;;17.36;100.00
32933;BME280;19444;50.518;10.870;2023-05-23T04:11:42;96272.16;;;17.74;100.00
32933;BME280;19444;50.518;10.870;2023-05-23T04:14:40;96278.50;;;17.62;100.00
32933;BME280;19444;50.518;10.870;2023-05-23T04:17:37;96282.31;;;17.38;100.00
32933;BME280;19444;50.518;10.870;2023-05-23T04:20:34;96284.50;;;17.52;100.00
32933;BME280;19444;50.518;10.870;2023-05-23T04:23:31;96283.78;;;17.35;100.00
32933;BME280;19444;50.518;10.870;2023-05-23T04:26:28;96289.22;;;17.35;100.00
32933;BME280;19444;50.518;10.870;2023-05-23T04:29:34;96281.22;;;17.62;100.00
32933;BME280;19444;50.518;10.870;2023-05-23T04:32:31;96283.16;;;17.61;100.00
32933;BME280;19444;50.518;10.870;2023-05-23T04:35:28;96280.44;;;17.61;100.00
32933;BME280;19444;50.518;10.870;2023-05-23T04:38:25;96274.75;;;17.47;100.00
32933;BME280;19444;50.518;10.870;2023-05-23T04:41:23;96285.03;;;17.57;100.00
32933;BME280;19444;50.518;10.870;2023-05-23T04:44:20;96281.16;;;17.58;100.00
32933;BME280;19444;50.518;10.870;2023-05-23T04:47:17;96285.94;;;17.46;100.00
32933;BME280;19444;50.518;10.870;2023-05-23T04:50:14;96297.63;;;17.11;100.00
32933;BME280;19444;50.518;10.870;2023-05-23T04:53:12;96281.31;;;17.66;100.00
32933;BME280;19444;50.518;10.870;2023-05-23T04:56:09;96290.44;;;17.77;100.00
32933;BME280;19444;50.518;10.870;2023-05-23T04:59:06;96295.28;;;17.48;100.00
32933;BME280;19444;50.518;10.870;2023-05-23T05:02:04;96300.34;;;17.50;100.00
32933;BME280;19444;50.518;10.870;2023-05-23T05:05:02;96298.28;;;17.82;100.00
32933;BME280;19444;50.518;10.870;2023-05-23T05:07:59;96304.19;;;17.10;100.00
32933;BME280;19444;50.518;10.870;2023-05-23T05:10:56;96304.31;;;17.17;100.00
32933;BME280;19444;50.518;10.870;2023-05-23T05:13:53;96307.31;;;17.12;100.00
32933;BME280;19444;50.518;10.870;2023-05-23T05:16:50;96303.72;;;17.08;100.00
32933;BME280;19444;50.518;10.870;2023-05-23T05:19:47;96315.47;;;16.96;100.00
32933;BME280;19444;50.518;10.870;2023-05-23T05:22:45;96308.91;;;16.97;100.00
32933;BME280;19444;50.518;10.870;2023-05-23T05:25:42;96310.38;;;17.11;100.00
32933;BME280;19444;50.518;10.870;2023-05-23T05:28:39;96304.97;;;17.30;100.00
32933;BME280;19444;50.518;10.870;2023-05-23T05:31:36;96308.63;;;17.38;100.00
32933;BME280;19444;50.518;10.870;2023-05-23T05:34:34;96314.78;;;16.68;100.00
32933;BME280;19444;50.518;10.870;2023-05-23T05:37:31;96310.00;;;16.77;100.00
32933;BME280;19444;50.518;10.870;2023-05-23T05:40:28;96315.28;;;16.89;100.00
32933;BME280;19444;50.518;10.870;2023-05-23T05:43:25;96315.34;;;16.73;100.00
32933;BME280;19444;50.518;10.870;2023-05-23T05:46:22;96325.47;;;16.76;100.00
32933;BME280;19444;50.518;10.870;2023-05-23T05:49:19;96325.13;;;17.32;100.00
32933;BME280;19444;50.518;10.870;2023-05-23T05:52:16;96329.81;;;16.81;100.00
32933;BME280;19444;50.518;10.870;2023-05-23T05:55:13;96330.75;;;16.73;100.00
32933;BME280;19444;50.518;10.870;2023-05-23T05:58:10;96333.38;;;16.54;100.00
32933;BME280;19444;50.518;10.870;2023-05-23T06:01:07;96333.28;;;16.97;100.00
32933;BME280;19444;50.518;10.870;2023-05-23T06:04:04;96333.34;;;17.36;100.00
32933;BME280;19444;50.518;10.870;2023-05-23T06:07:01;96338.13;;;17.08;100.00
32933;BME280;19444;50.518;10.870;2023-05-23T06:09:58;96328.13;;;17.27;100.00
32933;BME280;19444;50.518;10.870;2023-05-23T06:12:56;96336.16;;;16.89;100.00
32933;BME280;19444;50.518;10.870;2023-05-23T06:15:53;96341.56;;;16.89;100.00
32933;BME280;19444;50.518;10.870;2023-05-23T06:18:50;96346.13;;;16.53;100.00
32933;BME280;19444;50.518;10.870;2023-05-23T06:21:47;96344.25;;;17.04;100.00
32933;BME280;19444;50.518;10.870;2023-05-23T06:24:44;96346.94;;;16.69;100.00
32933;BME280;19444;50.518;10.870;2023-05-23T06:27:42;96344.81;;;16.63;100.00
32933;BME280;19444;50.518;10.870;2023-05-23T06:30:40;96350.66;;;16.81;100.00
32933;BME280;19444;50.518;10.870;2023-05-23T06:33:38;96354.81;;;17.10;100.00
32933;BME280;19444;50.518;10.870;2023-05-23T06:36:34;96363.66;;;17.06;100.00
32933;BME280;19444;50.518;10.870;2023-05-23T06:39:32;96363.66;;;16.91;100.00
32933;BME280;19444;50.518;10.870;2023-05-23T06:42:28;96367.94;;;16.44;100.00
32933;BME280;19444;50.518;10.870;2023-05-23T06:45:26;96374.81;;;16.42;100.00
32933;BME280;19444;50.518;10.870;2023-05-23T06:48:22;96377.19;;;16.43;100.00
32933;BME280;19444;50.518;10.870;2023-05-23T06:51:19;96379.47;;;16.57;100.00
32933;BME280;19444;50.518;10.870;2023-05-23T06:54:17;96389.25;;;15.74;100.00
32933;BME280;19444;50.518;10.870;2023-05-23T06:57:15;96380.03;;;16.19;100.00
32933;BME280;19444;50.518;10.870;2023-05-23T07:00:12;96381.03;;;15.99;100.00
32933;BME280;19444;50.518;10.870;2023-05-23T07:03:09;96380.97;;;16.11;100.00
32933;BME280;19444;50.518;10.870;2023-05-23T07:06:07;96376.38;;;16.43;100.00
32933;BME280;19444;50.518;10.870;2023-05-23T07:09:04;96389.63;;;15.88;100.00
32933;BME280;19444;50.518;10.870;2023-05-23T07:12:01;96384.22;;;16.76;100.00
32933;BME280;19444;50.518;10.870;2023-05-23T07:14:58;96395.13;;;16.20;100.00
32933;BME280;19444;50.518;10.870;2023-05-23T07:17:55;96399.03;;;16.66;100.00
32933;BME280;19444;50.518;10.870;2023-05-23T07:20:52;96397.81;;;16.80;100.00
32933;BME280;19444;50.518;10.870;2023-05-23T07:23:49;96396.84;;;16.56;100.00
32933;BME280;19444;50.518;10.870;2023-05-23T07:26:46;96397.00;;;16.47;100.00
32933;BME280;19444;50.518;10.870;2023-05-23T07:29:43;96403.09;;;15.73;100.00
32933;BME280;19444;50.518;10.870;2023-05-23T07:32:39;96402.75;;;16.02;100.00
32933;BME280;19444;50.518;10.870;2023-05-23T07:35:36;96400.34;;;16.13;100.00
32933;BME280;19444;50.518;10.870;2023-05-23T07:38:33;96402.34;;;15.88;100.00
32933;BME280;19444;50.518;10.870;2023-05-23T07:41:30;96402.66;;;16.42;100.00
32933;BME280;19444;50.518;10.870;2023-05-23T07:44:27;96423.66;;;16.93;100.00
32933;BME280;19444;50.518;10.870;2023-05-23T07:47:24;96405.16;;;16.35;100.00
32933;BME280;19444;50.518;10.870;2023-05-23T07:50:21;96414.25;;;15.99;100.00
32933;BME280;19444;50.518;10.870;2023-05-23T07:53:18;96409.63;;;15.59;100.00
32933;BME280;19444;50.518;10.870;2023-05-23T07:56:15;96418.78;;;15.95;100.00
32933;BME280;19444;50.518;10.870;2023-05-23T07:59:12;96421.47;;;15.55;100.00
32933;BME280;19444;50.518;10.870;2023-05-23T08:02:09;96419.78;;;15.90;100.00
32933;BME280;19444;50.518;10.870;2023-05-23T08:05:07;96421.34;;;16.47;100.00
32933;BME280;19444;50.518;10.870;2023-05-23T08:08:04;96417.69;;;16.56;100.00
32933;BME280;19444;50.518;10.870;2023-05-23T08:11:01;96427.97;;;16.50;100.00
32933;BME280;19444;50.518;10.870;2023-05-23T08:13:58;96424.09;;;15.79;100.00
32933;BME280;19444;50.518;10.870;2023-05-23T08:16:57;96422.59;;;16.22;100.00
32933;BME280;19444;50.518;10.870;2023-05-23T08:19:54;96422.97;;;15.92;100.00
32933;BME280;19444;50.518;10.870;2023-05-23T08:22:51;96431.34;;;16.31;100.00
32933;BME280;19444;50.518;10.870;2023-05-23T08:25:48;96424.72;;;16.44;100.00
32933;BME280;19444;50.518;10.870;2023-05-23T08:28:45;96429.44;;;15.76;100.00
32933;BME280;19444;50.518;10.870;2023-05-23T08:31:42;96432.00;;;15.84;100.00
32933;BME280;19444;50.518;10.870;2023-05-23T08:34:39;96440.63;;;15.90;100.00
32933;BME280;19444;50.518;10.870;2023-05-23T08:37:37;96429.16;;;16.81;100.00
32933;BME280;19444;50.518;10.870;2023-05-23T08:40:35;96426.97;;;16.70;100.00
32933;BME280;19444;50.518;10.870;2023-05-23T08:43:32;96425.97;;;16.63;100.00
32933;BME280;19444;50.518;10.870;2023-05-23T08:46:32;96426.81;;;16.35;100.00
32933;BME280;19444;50.518;10.870;2023-05-23T08:49:29;96428.22;;;16.29;100.00
32933;BME280;19444;50.518;10.870;2023-05-23T08:52:29;96425.47;;;17.55;100.00
32933;BME280;19444;50.518;10.870;2023-05-23T08:55:29;96437.34;;;17.00;100.00
32933;BME280;19444;50.518;10.870;2023-05-23T08:58:30;96426.34;;;17.59;100.00
32933;BME280;19444;50.518;10.870;2023-05-23T09:01:28;96429.88;;;17.44;100.00
32933;BME280;19444;50.518;10.870;2023-05-23T09:04:26;96428.38;;;16.96;100.00
32933;BME280;19444;50.518;10.870;2023-05-23T09:07:25;96447.31;;;16.80;100.00
32933;BME280;19444;50.518;10.870;2023-05-23T09:10:22;96439.75;;;17.01;100.00
32933;BME280;19444;50.518;10.870;2023-05-23T09:13:22;96455.28;;;17.04;100.00
32933;BME280;19444;50.518;10.870;2023-05-23T09:16:19;96441.22;;;16.83;100.00
32933;BME280;19444;50.518;10.870;2023-05-23T09:19:17;96453.09;;;17.10;100.00
32933;BME280;19444;50.518;10.870;2023-05-23T09:22:14;96456.66;;;17.14;100.00
32933;BME280;19444;50.518;10.870;2023-05-23T09:25:11;96448.88;;;17.28;100.00
32933;BME280;19444;50.518;10.870;2023-05-23T09:28:08;96449.84;;;17.55;100.00
32933;BME280;19444;50.518;10.870;2023-05-23T09:31:07;96451.00;;;17.70;100.00
32933;BME280;19444;50.518;10.870;2023-05-23T09:34:04;96460.28;;;17.88;100.00
32933;BME280;19444;50.518;10.870;2023-05-23T09:37:02;96457.78;;;17.80;100.00
32933;BME280;19444;50.518;10.870;2023-05-23T09:40:01;96472.06;;;17.45;100.00
32933;BME280;19444;50.518;10.870;2023-05-23T09:43:03;96467.84;;;16.97;100.00
32933;BME280;19444;50.518;10.870;2023-05-23T09:46:10;96465.66;;;17.02;100.00
32933;BME280;19444;50.518;10.870;2023-05-23T09:49:16;96467.84;;;17.13;100.00
32933;BME280;19444;50.518;10.870;2023-05-23T09:52:14;96458.47;;;17.42;100.00
32933;BME280;19444;50.518;10.870;2023-05-23T09:55:11;96474.78;;;16.66;100.00
32933;BME280;19444;50.518;10.870;2023-05-23T09:58:08;96461.13;;;16.63;100.00
32933;BME280;19444;50.518;10.870;2023-05-23T10:01:09;96472.66;;;16.60;100.00
32933;BME280;19444;50.518;10.870;2023-05-23T10:04:08;96472.59;;;16.56;100.00
32933;BME280;19444;50.518;10.870;2023-05-23T10:07:19;96476.84;;;16.57;100.00
32933;BME280;19444;50.518;10.870;2023-05-23T10:10:19;96485.56;;;16.78;100.00
32933;BME280;19444;50.518;10.870;2023-05-23T10:13:16;96476.63;;;16.34;100.00
32933;BME280;19444;50.518;10.870;2023-05-23T10:19:49;96483.66;;;16.23;100.00
32933;BME280;19444;50.518;10.870;2023-05-23T10:22:49;96478.88;;;16.60;100.00
32933;BME280;19444;50.518;10.870;2023-05-23T10:25:47;96481.16;;;17.53;100.00
32933;BME280;19444;50.518;10.870;2023-05-23T10:28:46;96468.97;;;16.96;100.00
32933;BME280;19444;50.518;10.870;2023-05-23T10:31:45;96461.38;;;17.84;100.00
32933;BME280;19444;50.518;10.870;2023-05-23T10:35:21;96459.94;;;18.09;100.00
32933;BME280;19444;50.518;10.870;2023-05-23T10:38:40;96452.06;;;19.08;100.00
32933;BME280;19444;50.518;10.870;2023-05-23T10:41:43;96441.69;;;19.14;100.00
32933;BME280;19444;50.518;10.870;2023-05-23T10:44:44;96454.63;;;18.55;100.00
32933;BME280;19444;50.518;10.870;2023-05-23T10:47:41;96451.63;;;18.60;100.00
32933;BME280;19444;50.518;10.870;2023-05-23T10:50:38;96465.75;;;17.73;100.00
32933;BME280;19444;50.518;10.870;2023-05-23T10:53:41;96461.59;;;17.95;100.00
32933;BME280;19444;50.518;10.870;2023-05-23T10:56:38;96457.72;;;17.76;100.00
32933;BME280;19444;50.518;10.870;2023-05-23T10:59:39;96471.41;;;17.48;100.00
32933;BME280;19444;50.518;10.870;2023-05-23T11:02:36;96480.06;;;16.91;100.00
32933;BME280;19444;50.518;10.870;2023-05-23T11:05:34;96488.19;;;16.19;100.00
32933;BME280;19444;50.518;10.870;2023-05-23T11:08:41;96485.00;;;16.29;100.00
32933;BME280;19444;50.518;10.870;2023-05-23T11:12:03;96497.69;;;16.69;100.00
32933;BME280;19444;50.518;10.870;2023-05-23T11:15:01;96492.47;;;17.08;100.00
32933;BME280;19444;50.518;10.870;2023-05-23T11:17:58;96501.00;;;16.78;100.00
32933;BME280;19444;50.518;10.870;2023-05-23T11:20:57;96501.81;;;16.94;100.00
32933;BME280;19444;50.518;10.870;2023-05-23T11:23:55;96508.63;;;17.04;100.00
32933;BME280;19444;50.518;10.870;2023-05-23T11:26:58;96506.66;;;16.45;100.00
32933;BME280;19444;50.518;10.870;2023-05-23T11:30:12;96499.53;;;16.53;100.00
32933;BME280;19444;50.518;10.870;2023-05-23T11:33:14;96505.28;;;16.51;100.00
32933;BME280;19444;50.518;10.870;2023-05-23T11:36:12;96504.19;;;16.68;100.00
32933;BME280;19444;50.518;10.870;2023-05-23T11:39:09;96515.09;;;16.28;100.00
32933;BME280;19444;50.518;10.870;2023-05-23T11:42:06;96508.16;;;16.70;100.00
32933;BME280;19444;50.518;10.870;2023-05-23T11:45:03;96515.94;;;16.04;100.00
32933;BME280;19444;50.518;10.870;2023-05-23T11:48:15;96515.63;;;15.81;100.00
32933;BME280;19444;50.518;10.870;2023-05-23T11:51:13;96522.56;;;16.18;100.00
32933;BME280;19444;50.518;10.870;2023-05-23T11:54:10;96515.75;;;16.25;100.00
32933;BME280;19444;50.518;10.870;2023-05-23T11:57:08;96522.00;;;16.41;100.00
32933;BME280;19444;50.518;10.870;2023-05-23T12:00:06;96523.38;;;16.35;100.00
32933;BME280;19444;50.518;10.870;2023-05-23T12:03:06;96518.53;;;16.40;100.00
32933;BME280;19444;50.518;10.870;2023-05-23T12:06:04;96520.00;;;16.66;100.00
32933;BME280;19444;50.518;10.870;2023-05-23T12:09:01;96521.13;;;16.93;100.00
32933;BME280;19444;50.518;10.870;2023-05-23T12:11:58;96519.09;;;17.53;100.00
32933;BME280;19444;50.518;10.870;2023-05-23T12:14:56;96537.16;;;16.30;100.00
32933;BME280;19444;50.518;10.870;2023-05-23T12:17:54;96536.69;;;16.40;100.00
32933;BME280;19444;50.518;10.870;2023-05-23T12:20:52;96534.00;;;15.75;100.00
32933;BME280;19444;50.518;10.870;2023-05-23T12:23:49;96536.88;;;16.47;100.00
32933;BME280;19444;50.518;10.870;2023-05-23T12:30:10;96531.00;;;17.32;100.00
32933;BME280;19444;50.518;10.870;2023-05-23T12:33:09;96539.69;;;16.78;100.00
32933;BME280;19444;50.518;10.870;2023-05-23T12:36:07;96539.44;;;16.15;100.00
32933;BME280;19444;50.518;10.870;2023-05-23T12:39:04;96545.03;;;15.46;100.00
32933;BME280;19444;50.518;10.870;2023-05-23T12:42:08;96549.97;;;15.56;100.00
32933;BME280;19444;50.518;10.870;2023-05-23T12:45:06;96545.16;;;15.61;100.00
32933;BME280;19444;50.518;10.870;2023-05-23T12:48:04;96553.94;;;15.46;100.00
32933;BME280;19444;50.518;10.870;2023-05-23T12:51:03;96549.56;;;16.31;100.00
32933;BME280;19444;50.518;10.870;2023-05-23T12:54:00;96554.91;;;15.42;100.00
32933;BME280;19444;50.518;10.870;2023-05-23T12:56:57;96558.78;;;14.95;100.00
32933;BME280;19444;50.518;10.870;2023-05-23T12:59:54;96552.53;;;15.16;100.00
32933;BME280;19444;50.518;10.870;2023-05-23T13:02:51;96559.03;;;15.02;100.00
32933;BME280;19444;50.518;10.870;2023-05-23T13:05:48;96561.38;;;15.61;100.00
32933;BME280;19444;50.518;10.870;2023-05-23T13:08:45;96563.38;;;15.28;100.00
32933;BME280;19444;50.518;10.870;2023-05-23T13:11:42;96565.81;;;15.33;100.00
32933;BME280;19444;50.518;10.870;2023-05-23T13:14:40;96559.19;;;15.43;100.00
32933;BME280;19444;50.518;10.870;2023-05-23T13:17:37;96547.13;;;16.13;100.00
32933;BME280;19444;50.518;10.870;2023-05-23T13:20:34;96561.66;;;15.35;100.00
32933;BME280;19444;50.518;10.870;2023-05-23T13:23:31;96562.53;;;15.15;100.00
32933;BME280;19444;50.518;10.870;2023-05-23T13:26:28;96565.97;;;15.61;100.00
32933;BME280;19444;50.518;10.870;2023-05-23T13:29:25;96563.94;;;15.46;100.00
32933;BME280;19444;50.518;10.870;2023-05-23T13:32:22;96554.06;;;16.27;100.00
32933;BME280;19444;50.518;10.870;2023-05-23T13:35:19;96559.28;;;16.19;100.00
32933;BME280;19444;50.518;10.870;2023-05-23T13:38:20;96561.69;;;15.48;100.00
32933;BME280;19444;50.518;10.870;2023-05-23T13:41:17;96566.22;;;15.68;100.00
32933;BME280;19444;50.518;10.870;2023-05-23T13:44:14;96563.19;;;15.00;100.00
32933;BME280;19444;50.518;10.870;2023-05-23T13:47:12;96560.66;;;15.40;100.00
32933;BME280;19444;50.518;10.870;2023-05-23T13:50:10;96574.06;;;15.36;100.00
32933;BME280;19444;50.518;10.870;2023-05-23T13:53:07;96565.75;;;15.66;100.00
32933;BME280;19444;50.518;10.870;2023-05-23T13:56:10;96573.13;;;15.45;100.00
32933;BME280;19444;50.518;10.870;2023-05-23T13:59:07;96568.25;;;15.83;100.00
32933;BME280;19444;50.518;10.870;2023-05-23T14:02:04;96574.78;;;15.00;100.00
32933;BME280;19444;50.518;10.870;2023-05-23T14:05:02;96576.38;;;15.14;100.00
32933;BME280;19444;50.518;10.870;2023-05-23T14:07:59;96584.72;;;15.33;100.00
32933;BME280;19444;50.518;10.870;2023-05-23T14:10:56;96585.31;;;15.39;100.00
32933;BME280;19444;50.518;10.870;2023-05-23T14:13:53;96586.13;;;15.06;100.00
32933;BME280;19444;50.518;10.870;2023-05-23T14:16:50;96593.28;;;15.35;100.00
32933;BME280;19444;50.518;10.870;2023-05-23T14:19:47;96596.31;;;14.88;100.00
32933;BME280;19444;50.518;10.870;2023-05-23T14:22:44;96589.00;;;14.89;100.00
32933;BME280;19444;50.518;10.870;2023-05-23T14:25:41;96582.53;;;15.72;100.00
32933;BME280;19444;50.518;10.870;2023-05-23T14:28:39;96591.25;;;14.87;100.00
32933;BME280;19444;50.518;10.870;2023-05-23T14:31:36;96588.09;;;16.15;100.00
32933;BME280;19444;50.518;10.870;2023-05-23T14:34:33;96588.09;;;16.28;100.00
32933;BME280;19444;50.518;10.870;2023-05-23T14:37:30;96596.13;;;16.00;100.00
32933;BME280;19444;50.518;10.870;2023-05-23T14:40:27;96587.34;;;15.90;100.00
32933;BME280;19444;50.518;10.870;2023-05-23T14:43:24;96596.25;;;15.79;100.00
32933;BME280;19444;50.518;10.870;2023-05-23T14:46:21;96597.69;;;15.52;100.00
32933;BME280;19444;50.518;10.870;2023-05-23T14:49:18;96597.94;;;15.96;100.00
32933;BME280;19444;50.518;10.870;2023-05-23T14:52:15;96602.38;;;16.40;100.00
32933;BME280;19444;50.518;10.870;2023-05-23T14:55:13;96600.19;;;16.06;100.00
32933;BME280;19444;50.518;10.870;2023-05-23T14:58:09;96603.88;;;16.26;100.00
32933;BME280;19444;50.518;10.870;2023-05-23T15:01:06;96603.81;;;16.50;100.00
32933;BME280;19444;50.518;10.870;2023-05-23T15:04:03;96609.53;;;15.96;100.00
32933;BME280;19444;50.518;10.870;2023-05-23T15:07:01;96620.09;;;15.52;100.00
32933;BME280;19444;50.518;10.870;2023-05-23T15:09:58;96615.41;;;15.86;100.00
32933;BME280;19444;50.518;10.870;2023-05-23T15:12:55;96617.56;;;15.92;100.00
32933;BME280;19444;50.518;10.870;2023-05-23T15:15:52;96619.28;;;15.27;100.00
32933;BME280;19444;50.518;10.870;2023-05-23T15:18:50;96618.00;;;15.70;100.00
32933;BME280;19444;50.518;10.870;2023-05-23T15:21:46;96620.69;;;15.95;100.00
32933;BME280;19444;50.518;10.870;2023-05-23T15:24:47;96622.16;;;14.56;100.00
32933;BME280;19444;50.518;10.870;2023-05-23T15:27:44;96613.59;;;15.90;100.00
32933;BME280;19444;50.518;10.870;2023-05-23T15:30:42;96614.38;;;15.90;100.00
32933;BME280;19444;50.518;10.870;2023-05-23T15:33:39;96606.00;;;16.32;100.00
32933;BME280;19444;50.518;10.870;2023-05-23T15:36:39;96609.22;;;15.85;100.00